N8QF-1 Weather Reports


Display with metric or nautical units.
time (UTC)temp
F
wind
direction
speed
MPH
gust
MPH
rain 1hr
in
rain 24hr
in
rain mn
in
humidity
%
barometer
mb
20201027120431 46 31 2.0 3.0 0.00 0.00 0.01 85 1024.4
20201027115931 46 25 2.0 5.0 0.00 0.00 0.01 85 1024.5
20201027115431 46 24 3.0 6.0 0.00 0.00 0.01 85 1024.8
20201027114931 46 359 4.0 6.0 0.00 0.00 0.01 85 1024.7
20201027114432 46 60 3.0 6.0 0.00 0.00 0.01 85 1024.6
20201027113933 46 0 2.0 5.0 0.00 0.00 0.01 85 1024.6
20201027113431 46 7 1.0 4.0 0.00 0.00 0.01 85 1024.6
20201027112932 46 336 0.0 3.0 0.00 0.00 0.01 85 1024.8
20201027112431 46 30 3.0 5.0 0.00 0.00 0.01 84 1024.7
20201027111932 46 46 4.0 6.0 0.00 0.00 0.01 84 1024.6
20201027111429 46 90 2.0 5.0 0.00 0.00 0.01 84 1024.7
20201027110936 46 18 3.0 6.0 0.00 0.00 0.01 84 1024.6
20201027110429 46 8 1.0 3.0 0.00 0.00 0.01 84 1024.7
20201027105928 46 89 3.0 6.0 0.00 0.00 0.01 84 1024.8
20201027105429 46 96 4.0 7.0 0.00 0.00 0.01 84 1024.7
20201027104933 46 84 4.0 7.0 0.00 0.00 0.01 84 1024.7
20201027104427 46 97 2.0 5.0 0.00 0.00 0.01 84 1024.9
20201027103927 46 93 1.0 5.0 0.00 0.00 0.01 83 1024.8
20201027103427 46 84 0.0 1.0 0.00 0.00 0.01 84 1025.0
20201027102928 46 94 1.0 5.0 0.00 0.00 0.01 84 1024.9
20201027102426 46 49 0.0 2.0 0.00 0.00 0.01 84 1024.6
20201027101926 46 55 2.0 5.0 0.00 0.00 0.01 85 1024.4
20201027101426 46 82 1.0 4.0 0.00 0.00 0.01 85 1024.5
20201027100925 46 104 3.0 6.0 0.00 0.00 0.01 85 1024.3
20201027100425 46 113 1.0 4.0 0.00 0.00 0.01 84 1024.4
20201027095925 46 101 2.0 5.0 0.00 0.00 0.01 84 1024.4
20201027095425 46 7 1.0 4.0 0.00 0.00 0.01 84 1024.5
20201027094928 46 52 1.0 4.0 0.00 0.00 0.01 84 1024.7
20201027094425 46 11 3.0 6.0 0.00 0.00 0.01 84 1024.6
20201027093923 46 32 2.0 5.0 0.00 0.00 0.01 85 1024.4
20201027093423 46 42 2.0 6.0 0.00 0.00 0.01 84 1024.4
20201027092923 46 87 1.0 3.0 0.00 0.00 0.01 85 1024.5
20201027092423 46 90 1.0 4.0 0.00 0.00 0.01 85 1024.4
20201027091921 46 108 1.0 3.0 0.00 0.00 0.01 85 1024.5
20201027091430 46 32 3.0 5.0 0.00 0.00 0.01 86 1024.3
20201027090922 46 68 2.0 5.0 0.00 0.00 0.01 85 1024.4
20201027090428 46 76 2.0 5.0 0.00 0.00 0.01 86 1024.4
20201027085925 46 75 1.0 3.0 0.00 0.00 0.01 87 1024.4
20201027085422 46 42 2.0 5.0 0.00 0.00 0.01 87 1024.4
20201027084925 46 35 2.0 3.0 0.00 0.00 0.01 87 1024.4
20201027084425 46 3 1.0 4.0 0.00 0.00 0.01 87 1024.5
20201027083920 46 15 2.0 4.0 0.00 0.00 0.01 87 1024.5
20201027083420 46 66 0.0 3.0 0.00 0.00 0.01 87 1024.4
20201027082921 46 97 3.0 6.0 0.00 0.00 0.01 88 1024.2
20201027082419 46 65 3.0 5.0 0.00 0.00 0.01 87 1024.1
20201027081921 46 44 1.0 4.0 0.00 0.00 0.01 87 1024.4
20201027081419 46 63 2.0 4.0 0.00 0.00 0.01 87 1024.6
20201027080419 46 44 4.0 7.0 0.00 0.00 0.01 87 1024.4
20201027075918 46 72 2.0 5.0 0.00 0.00 0.01 87 1024.4
20201027075417 46 45 2.0 5.0 0.00 0.00 0.01 87 1024.5
20201027074917 46 58 3.0 5.0 0.00 0.00 0.01 87 1024.6
20201027074540 46 25 1.0 3.0 0.00 0.00 0.01 86 1024.9
20201027074418 46 25 1.0 3.0 0.00 0.00 0.01 86 1024.9
20201027073917 46 13 3.0 5.0 0.00 0.00 0.01 87 1024.9
20201027073416 46 7 1.0 5.0 0.00 0.00 0.01 86 1024.5
20201027072918 46 46 2.0 5.0 0.00 0.00 0.01 86 1024.4
20201027072417 46 321 2.0 6.0 0.00 0.00 0.01 86 1024.5
20201027071917 46 332 3.0 5.0 0.00 0.00 0.01 87 1024.4
20201027071418 46 23 3.0 7.0 0.00 0.00 0.01 88 1024.1
20201027070915 46 7 3.0 7.0 0.00 0.00 0.01 88 1024.1
20201027070415 46 18 3.0 6.0 0.00 0.00 0.01 88 1023.8
20201027065922 46 4 3.0 7.0 0.00 0.00 0.01 88 1024.0
20201027065415 46 20 3.0 5.0 0.00 0.00 0.01 88 1024.0
20201027064914 46 359 2.0 6.0 0.00 0.00 0.01 89 1023.9
20201027064416 46 51 4.0 8.0 0.00 0.00 0.01 89 1023.8
20201027063912 46 73 3.0 6.0 0.00 0.00 0.01 89 1023.6
20201027063413 46 66 3.0 5.0 0.00 0.00 0.01 89 1023.9
20201027062913 46 45 3.0 6.0 0.00 0.00 0.01 89 1024.2
20201027062418 46 79 3.0 7.0 0.00 0.00 0.01 89 1023.7
20201027061920 46 8 4.0 8.0 0.00 0.00 0.01 89 1024.2
20201027061412 46 6 3.0 7.0 0.00 0.00 0.01 89 1023.9
20201027060918 46 46 3.0 6.0 0.00 0.00 0.01 89 1024.0
20201027060415 46 328 4.0 6.0 0.00 0.00 0.01 89 1024.2
20201027055914 46 326 4.0 7.0 0.00 0.00 0.01 89 1024.1
20201027055411 46 68 4.0 7.0 0.00 0.00 0.01 89 1023.5
20201027055044 46 37 3.0 5.0 0.00 0.00 0.01 89 1023.8
20201027054914 46 37 3.0 5.0 0.00 0.00 0.01 89 1023.8
20201027054417 46 75 1.0 5.0 0.00 0.00 0.01 89 1023.8
20201027053911 46 75 4.0 6.0 0.00 0.00 0.01 89 1023.7
20201027053413 46 24 3.0 6.0 0.00 0.00 0.01 89 1024.1
20201027052914 46 316 1.0 4.0 0.00 0.00 0.01 89 1024.4
20201027052408 46 359 2.0 4.0 0.00 0.00 0.01 89 1024.3
20201027051909 46 354 3.0 5.0 0.00 0.00 0.01 89 1024.4
20201027051410 46 316 2.0 6.0 0.00 0.00 0.01 88 1024.4
20201027050911 46 347 2.0 4.0 0.00 0.00 0.01 89 1024.2
20201027050408 46 24 2.0 5.0 0.00 0.00 0.01 88 1024.4
20201027045908 46 37 1.0 5.0 0.00 0.00 0.01 88 1024.3
20201027045407 46 93 4.0 8.0 0.00 0.00 0.01 89 1024.1
20201027044909 46 77 2.0 6.0 0.00 0.00 0.01 89 1024.5
20201027044406 46 44 4.0 8.0 0.00 0.00 0.01 89 1024.3
20201027043906 46 49 5.0 12.0 0.00 0.00 0.01 89 1024.2
20201027043409 46 6 4.0 7.0 0.00 0.00 0.01 89 1024.4
20201027042905 46 345 5.0 8.0 0.00 0.00 0.01 89 1024.3
20201027042405 46 339 7.0 10.0 0.00 0.00 0.01 89 1024.6
20201027041908 46 343 5.0 8.0 0.00 0.00 0.00 89 1024.6
20201027041405 46 42 3.0 8.0 0.00 0.00 0.00 90 1024.5
20201027040909 46 353 4.0 7.0 0.00 0.00 0.00 89 1024.6
20201027040409 46 332 4.0 7.0 0.00 0.00 0.00 89 1024.7
20201027035907 46 333 4.0 8.0 0.00 0.00 0.02 89 1024.8
20201027035404 46 357 2.0 5.0 0.00 0.00 0.02 89 1024.5
20201027034907 47 349 2.0 5.0 0.00 0.00 0.02 88 1024.4
20201027034406 47 343 1.0 4.0 0.00 0.00 0.01 88 1024.7
20201027033902 47 28 2.0 6.0 0.00 0.00 0.01 88 1024.7
20201027033413 47 338 1.0 4.0 0.00 0.00 0.01 87 1024.7
20201027032905 47 339 0.0 3.0 0.00 0.00 0.00 87 1024.9
20201027032401 47 23 3.0 6.0 0.00 0.00 0.00 87 1024.7
20201027031906 47 13 2.0 4.0 0.00 0.00 0.00 86 1024.8
20201027031403 47 312 1.0 4.0 0.00 0.00 0.00 86 1024.8
20201027030902 47 359 3.0 6.0 0.00 0.00 0.00 85 1024.6
20201027030401 47 352 4.0 6.0 0.00 0.00 0.00 85 1024.5
20201027025900 47 27 3.0 7.0 0.00 0.00 0.00 85 1024.5
20201027025404 47 319 2.0 6.0 0.00 0.00 0.00 84 1024.6
20201027024900 47 342 3.0 6.0 0.00 0.00 0.00 84 1024.7
20201027024401 47 349 3.0 6.0 0.00 0.00 0.00 83 1024.6
20201027023900 47 353 0.0 5.0 0.00 0.00 0.00 84 1024.7
20201027023400 48 3 1.0 5.0 0.00 0.00 0.00 84 1024.6
20201027022859 47 329 2.0 4.0 0.00 0.00 0.00 84 1024.2
20201027022359 47 328 2.0 5.0 0.00 0.00 0.00 84 1024.1
20201027021952 47 24 1.0 3.0 0.00 0.00 0.00 84 1024.1
20201027021858 47 24 1.0 3.0 0.00 0.00 0.00 84 1024.1
20201027021358 47 342 2.0 4.0 0.00 0.00 0.00 84 1024.1
20201027020900 47 1 2.0 3.0 0.00 0.00 0.00 84 1024.1
20201027020357 47 339 1.0 4.0 0.00 0.00 0.00 83 1024.0
20201027015857 47 343 2.0 4.0 0.00 0.00 0.00 83 1024.1
20201027015428 47 347 1.0 3.0 0.00 0.00 0.00 83 1024.2
20201027015357 47 347 1.0 3.0 0.00 0.00 0.00 83 1024.2
20201027014858 47 14 2.0 5.0 0.00 0.00 0.00 83 1023.9
20201027014358 47 312 2.0 4.0 0.00 0.00 0.00 83 1023.8
20201027013858 47 323 2.0 5.0 0.00 0.00 0.00 83 1024.1
20201027013403 47 352 2.0 3.0 0.00 0.00 0.00 84 1023.7
20201027012855 48 347 2.0 4.0 0.00 0.00 0.00 84 1023.7
20201027012357 47 333 1.0 4.0 0.00 0.00 0.00 83 1024.0
20201027011855 48 8 2.0 4.0 0.00 0.00 0.00 82 1023.9
20201027011354 48 10 1.0 3.0 0.00 0.00 0.00 83 1023.9
20201027010857 48 325 1.0 3.0 0.00 0.00 0.00 82 1024.0
20201027010357 48 315 1.0 4.0 0.00 0.00 0.00 83 1024.1
20201027005856 48 346 0.0 3.0 0.00 0.00 0.00 83 1023.6
20201027005354 48 6 1.0 4.0 0.00 0.00 0.00 83 1023.4
20201027004854 48 3 1.0 4.0 0.00 0.00 0.00 83 1023.5
20201027004354 47 6 3.0 6.0 0.00 0.00 0.00 82 1023.5
20201027004026 48 15 1.0 4.0 0.00 0.00 0.00 84 1023.5
20201027003853 48 15 1.0 4.0 0.00 0.00 0.00 84 1023.5
20201027003354 48 7 1.0 2.0 0.00 0.00 0.00 83 1023.5
20201027002852 48 346 2.0 5.0 0.00 0.00 0.00 83 1023.5
20201027002353 47 336 2.0 4.0 0.00 0.00 0.00 82 1023.7
20201027001851 48 314 0.0 2.0 0.00 0.00 0.00 83 1023.8
20201027001351 48 0 0.0 0.0 0.00 0.00 0.00 83 1023.7
20201027000852 48 0 0.0 0.0 0.00 0.00 0.00 83 1023.6
20201027000350 48 0 0.0 0.0 0.00 0.00 0.00 83 1023.9
20201026235853 48 0 0.0 0.0 0.00 0.00 0.00 82 1023.9
20201026235350 48 338 0.0 2.0 0.00 0.00 0.00 83 1023.8
20201026234849 48 353 1.0 3.0 0.00 0.00 0.00 83 1023.8
20201026234351 48 329 1.0 3.0 0.00 0.00 0.00 82 1023.6
20201026233850 48 288 1.0 3.0 0.00 0.00 0.00 82 1023.4
20201026233349 48 0 3.0 4.0 0.00 0.00 0.00 82 1023.2
20201026232354 48 271 2.0 4.0 0.00 0.00 0.00 81 1022.8
20201026231854 48 321 3.0 5.0 0.00 0.00 0.00 81 1022.6
20201026231349 48 31 3.0 6.0 0.00 0.00 0.00 82 1021.7
20201026230351 48 3 3.0 6.0 0.00 0.00 0.00 81 1022.3
20201026225850 49 314 3.0 5.0 0.00 0.00 0.00 79 1022.5
20201026225346 49 345 4.0 6.0 0.00 0.00 0.00 77 1022.6
20201026224850 49 69 3.0 5.0 0.00 0.00 0.00 77 1022.4
20201026224348 49 21 3.0 6.0 0.00 0.00 0.00 76 1022.3
20201026223850 49 27 3.0 7.0 0.00 0.00 0.00 76 1022.3
20201026223345 49 11 4.0 7.0 0.00 0.00 0.00 75 1022.4
20201026223007 49 333 4.0 7.0 0.00 0.00 0.00 74 1022.6
20201026222845 49 333 4.0 7.0 0.00 0.00 0.00 74 1022.6
20201026222345 50 322 2.0 4.0 0.00 0.00 0.00 75 1022.8
20201026221858 50 298 1.0 3.0 0.00 0.00 0.00 74 1022.9
20201026221349 50 297 3.0 5.0 0.00 0.00 0.00 73 1022.8
20201026220845 50 312 3.0 6.0 0.00 0.00 0.00 72 1022.5
20201026220344 50 15 2.0 5.0 0.00 0.00 0.00 73 1021.7
20201026215844 50 58 4.0 10.0 0.00 0.00 0.00 72 1021.2
20201026215347 50 345 2.0 6.0 0.00 0.00 0.00 72 1021.2
20201026214846 49 291 4.0 7.0 0.00 0.00 0.00 71 1021.4
20201026214345 50 18 4.0 7.0 0.00 0.00 0.00 72 1021.4
20201026213846 49 338 5.0 8.0 0.00 0.00 0.00 72 1021.4
20201026213342 49 336 6.0 11.0 0.00 0.00 0.00 72 1021.3
20201026212856 50 8 6.0 10.0 0.00 0.00 0.00 72 1020.9
20201026212341 50 321 5.0 8.0 0.00 0.00 0.00 72 1020.9
20201026211841 50 359 6.0 9.0 0.00 0.00 0.00 73 1020.8
20201026211341 50 56 4.0 8.0 0.00 0.00 0.00 72 1020.9
20201026210844 50 354 5.0 8.0 0.00 0.00 0.00 72 1021.0
20201026210342 50 342 5.0 7.0 0.00 0.00 0.00 72 1021.1
20201026205523 50 4 5.0 8.0 0.00 0.00 0.00 71 1020.9
20201026205346 50 4 5.0 8.0 0.00 0.00 0.00 71 1020.9
20201026204843 50 336 6.0 10.0 0.00 0.00 0.00 71 1020.9
20201026204339 50 10 6.0 10.0 0.00 0.00 0.00 71 1020.8
20201026203846 50 316 5.0 11.0 0.00 0.00 0.00 71 1020.9
20201026203338 50 24 7.0 9.0 0.00 0.00 0.00 70 1020.7
20201026202844 50 336 5.0 8.0 0.00 0.00 0.00 70 1020.7
20201026202342 50 11 5.0 7.0 0.00 0.00 0.00 70 1020.6
20201026201842 50 333 5.0 9.0 0.00 0.00 0.00 69 1020.8
20201026201342 50 308 6.0 10.0 0.00 0.00 0.00 69 1020.8
20201026200356 50 353 7.0 11.0 0.00 0.00 0.00 69 1020.7
20201026195336 50 3 5.0 10.0 0.00 0.00 0.00 70 1020.7
20201026194849 50 308 4.0 8.0 0.00 0.00 0.00 69 1020.6
20201026194336 50 332 4.0 8.0 0.00 0.00 0.00 70 1020.7
20201026193836 50 359 3.0 5.0 0.00 0.00 0.00 70 1020.6
20201026193337 50 340 3.0 7.0 0.00 0.00 0.00 71 1020.5
20201026192837 50 338 6.0 11.0 0.00 0.00 0.00 71 1020.5
20201026192334 50 59 5.0 7.0 0.00 0.00 0.00 72 1020.4
20201026191838 50 339 6.0 8.0 0.00 0.00 0.00 72 1020.3
20201026191338 50 335 4.0 7.0 0.00 0.00 0.00 72 1020.3
20201026190834 50 18 4.0 8.0 0.00 0.00 0.00 72 1020.4
20201026190340 50 335 5.0 9.0 0.00 0.00 0.00 73 1020.4
20201026185834 50 297 4.0 8.0 0.00 0.00 0.00 74 1020.5
20201026185334 50 278 6.0 10.0 0.00 0.00 0.00 74 1020.7
20201026184838 50 328 5.0 9.0 0.00 0.00 0.00 75 1020.9
20201026184337 50 298 6.0 11.0 0.00 0.00 0.00 75 1020.8
20201026183832 50 291 5.0 10.0 0.00 0.00 0.00 76 1020.8
20201026183332 50 287 3.0 9.0 0.00 0.00 0.00 77 1020.9
20201026182833 49 42 2.0 5.0 0.00 0.00 0.00 81 1020.9
20201026182331 49 11 4.0 9.0 0.00 0.00 0.00 82 1021.0
20201026181831 48 347 6.0 10.0 0.00 0.00 0.00 81 1021.1
20201026181332 49 345 5.0 9.0 0.00 0.00 0.00 81 1021.2
20201026180840 48 329 6.0 11.0 0.00 0.00 0.00 81 1021.2
20201026180333 49 359 7.0 11.0 0.00 0.00 0.00 83 1021.2
20201026175832 49 6 4.0 8.0 0.00 0.00 0.00 83 1021.1
20201026175329 49 300 3.0 6.0 0.00 0.00 0.00 83 1021.2
20201026174832 49 297 4.0 8.0 0.00 0.00 0.00 84 1021.1
20201026174329 48 342 4.0 7.0 0.00 0.00 0.00 85 1021.0
20201026173829 48 349 5.0 12.0 0.00 0.00 0.00 86 1021.0
20201026173330 48 305 6.0 10.0 0.00 0.00 0.00 87 1021.0
20201026172828 48 298 7.0 11.0 0.00 0.00 0.00 87 1021.0
20201026172330 49 349 6.0 10.0 0.00 0.00 0.00 87 1021.1
20201026171831 49 357 5.0 8.0 0.00 0.00 0.00 86 1021.2
20201026171327 49 259 4.0 7.0 0.00 0.00 0.00 85 1021.2
20201026170828 49 319 5.0 8.0 0.00 0.00 0.00 85 1021.3
20201026165826 49 325 5.0 9.0 0.00 0.00 0.00 83 1021.2
20201026165330 49 276 7.0 11.0 0.00 0.00 0.00 80 1021.1
20201026164830 50 288 6.0 12.0 0.00 0.00 0.00 80 1021.2
20201026164326 50 330 4.0 8.0 0.00 0.00 0.00 82 1021.3
20201026163829 50 336 5.0 8.0 0.00 0.00 0.00 80 1021.4
20201026163326 50 319 3.0 6.0 0.00 0.00 0.00 80 1021.2
20201026162825 50 283 5.0 8.0 0.00 0.00 0.00 80 1021.2
20201026162325 50 273 5.0 9.0 0.00 0.00 0.00 79 1021.2
20201026161830 50 273 4.0 9.0 0.00 0.00 0.00 79 1021.3
20201026161327 50 294 4.0 7.0 0.00 0.00 0.00 79 1021.3
20201026160825 50 291 5.0 8.0 0.00 0.00 0.00 79 1021.2
20201026160323 50 267 4.0 7.0 0.00 0.00 0.00 79 1021.0
20201026155825 50 283 5.0 9.0 0.00 0.00 0.00 78 1020.9
20201026155323 50 270 5.0 9.0 0.00 0.00 0.00 77 1020.8
20201026154824 50 277 4.0 7.0 0.00 0.00 0.00 78 1020.7
20201026154322 50 263 4.0 6.0 0.00 0.00 0.00 78 1020.8
20201026153824 50 301 1.0 5.0 0.00 0.00 0.00 77 1020.6
20201026153322 50 285 0.0 4.0 0.00 0.00 0.00 80 1020.6
20201026152322 50 266 1.0 3.0 0.00 0.00 0.00 81 1020.5
20201026151821 50 269 3.0 5.0 0.00 0.00 0.00 81 1020.6
20201026151321 49 278 3.0 6.0 0.00 0.00 0.00 81 1020.6
20201026150820 49 263 1.0 4.0 0.00 0.00 0.00 82 1020.7
20201026150320 49 281 1.0 2.0 0.00 0.00 0.00 83 1020.6
20201026145820 49 267 1.0 4.0 0.00 0.00 0.00 83 1020.8
20201026145324 49 294 1.0 3.0 0.00 0.00 0.00 84 1020.7
20201026144820 49 345 2.0 4.0 0.00 0.00 0.00 84 1020.8
20201026144323 48 346 2.0 4.0 0.00 0.00 0.00 85 1020.7
20201026143938 48 311 4.0 6.0 0.00 0.00 0.00 85 1020.5
20201026143818 48 311 4.0 6.0 0.00 0.00 0.00 85 1020.5
20201026143318 48 271 3.0 6.0 0.00 0.00 0.00 86 1020.4
20201026142820 48 308 2.0 3.0 0.00 0.00 0.00 85 1020.3
20201026142327 48 352 1.0 3.0 0.00 0.00 0.00 86 1020.3
20201026141823 48 284 2.0 3.0 0.00 0.00 0.00 86 1020.3
20201026141319 48 302 1.0 4.0 0.00 0.00 0.00 86 1020.3
20201026140821 48 340 2.0 3.0 0.00 0.00 0.00 87 1020.2
20201026140328 48 0 0.0 0.0 0.00 0.00 0.00 87 1020.2
20201026135816 48 328 1.0 3.0 0.00 0.00 0.00 87 1020.1
20201026135325 48 0 0.0 0.0 0.00 0.00 0.00 87 1020.0
20201026134817 48 343 1.0 5.0 0.00 0.00 0.00 86 1020.2
20201026134318 48 343 0.0 5.0 0.00 0.00 0.00 86 1020.2
20201026133816 48 23 0.0 2.0 0.00 0.00 0.00 87 1020.1
20201026133318 47 37 0.0 2.0 0.00 0.00 0.00 86 1020.3
20201026132815 48 0 0.0 0.0 0.00 0.00 0.00 86 1020.2
20201026132318 48 333 2.0 5.0 0.00 0.00 0.00 87 1020.3
20201026131816 47 352 1.0 5.0 0.00 0.00 0.00 87 1020.0
20201026131319 47 0 0.0 0.0 0.00 0.00 0.00 87 1020.0
20201026130815 47 0 0.0 0.0 0.00 0.00 0.00 88 1019.8
20201026130313 47 25 2.0 4.0 0.00 0.00 0.00 88 1019.7
20201026125813 47 336 0.0 2.0 0.00 0.00 0.00 88 1019.8
20201026125318 47 0 0.0 0.0 0.00 0.00 0.00 88 1019.7
20201026124813 47 15 1.0 3.0 0.00 0.00 0.00 88 1019.6
20201026124312 47 44 0.0 0.0 0.00 0.00 0.00 88 1019.4
20201026123814 47 56 1.0 3.0 0.00 0.00 0.00 88 1019.2
20201026123312 47 55 3.0 6.0 0.00 0.00 0.00 88 1019.2
20201026122815 47 58 3.0 6.0 0.00 0.00 0.00 88 1019.2
20201026122316 46 52 1.0 6.0 0.00 0.00 0.00 89 1019.2
20201026121812 46 0 0.0 0.0 0.00 0.00 0.00 88 1019.3
20201026121311 46 27 3.0 5.0 0.00 0.00 0.00 89 1019.2
20201026120810 46 30 2.0 4.0 0.00 0.00 0.00 89 1019.2